createdAt,value
2018-03-31T00:02:15.892Z,2.53
2018-03-31T00:04:43.251Z,1.30
2018-03-31T00:07:10.605Z,1.40
2018-03-31T00:09:37.996Z,1.50
2018-03-31T00:12:05.366Z,1.07
2018-03-31T00:14:32.705Z,1.20
2018-03-31T00:17:00.261Z,1.23
2018-03-31T00:19:27.598Z,1.13
2018-03-31T00:21:55.053Z,1.43
2018-03-31T00:24:22.415Z,1.47
2018-03-31T00:26:49.799Z,1.30
2018-03-31T00:29:17.181Z,1.10
2018-03-31T00:31:44.515Z,1.40
2018-03-31T00:34:11.918Z,1.20
2018-03-31T00:36:39.347Z,1.40
2018-03-31T00:39:07.463Z,1.20
2018-03-31T00:41:34.811Z,1.00
2018-03-31T00:44:02.167Z,1.83
2018-03-31T00:46:29.707Z,1.30
2018-03-31T00:48:57.067Z,0.97
2018-03-31T00:51:24.413Z,1.17
2018-03-31T00:53:51.767Z,1.43
2018-03-31T00:56:19.136Z,1.73
2018-03-31T00:58:46.516Z,1.30
2018-03-31T01:01:13.863Z,1.00
2018-03-31T01:03:41.219Z,1.00
2018-03-31T01:06:08.629Z,1.10
2018-03-31T01:08:35.992Z,0.90
2018-03-31T01:11:03.367Z,1.23
2018-03-31T01:13:30.723Z,0.83
2018-03-31T01:15:58.080Z,0.90
2018-03-31T01:18:25.418Z,0.87
2018-03-31T01:20:52.774Z,0.83
2018-03-31T01:23:20.289Z,0.90
2018-03-31T01:25:47.623Z,0.80
2018-03-31T01:28:14.993Z,0.80
2018-03-31T01:30:42.320Z,0.70
2018-03-31T01:33:09.779Z,0.90
2018-03-31T01:35:37.145Z,0.80
2018-03-31T01:38:04.522Z,0.90
2018-03-31T01:40:31.874Z,0.60
2018-03-31T01:42:59.268Z,0.60
2018-03-31T01:45:26.673Z,0.63
2018-03-31T01:47:54.039Z,0.70
2018-03-31T01:50:22.169Z,0.60
2018-03-31T01:52:49.566Z,0.60
2018-03-31T01:55:16.920Z,0.60
2018-03-31T01:57:44.413Z,1.17
2018-03-31T02:00:13.241Z,0.50
2018-03-31T02:02:40.617Z,0.60
2018-03-31T02:05:07.957Z,0.50
2018-03-31T02:07:35.663Z,0.40
2018-03-31T02:10:03.765Z,0.40
2018-03-31T02:12:31.211Z,0.40
2018-03-31T02:14:58.581Z,0.50
2018-03-31T02:17:25.941Z,0.57
2018-03-31T02:19:53.332Z,0.50
2018-03-31T02:22:20.679Z,0.50
2018-03-31T02:24:48.026Z,0.77
2018-03-31T02:27:15.391Z,0.40
2018-03-31T02:29:42.757Z,0.50
2018-03-31T02:32:10.183Z,0.33
2018-03-31T02:34:37.549Z,0.53
2018-03-31T02:37:04.906Z,0.40
2018-03-31T02:39:32.272Z,0.33
2018-03-31T02:41:59.649Z,0.47
2018-03-31T02:44:27.017Z,0.40
2018-03-31T02:46:54.352Z,0.40
2018-03-31T02:49:21.714Z,0.50
2018-03-31T02:51:49.097Z,0.40
2018-03-31T02:54:16.473Z,0.53
2018-03-31T02:56:43.836Z,0.40
2018-03-31T02:59:11.169Z,0.60
2018-03-31T03:01:38.525Z,0.50
2018-03-31T03:04:05.885Z,0.33
2018-03-31T03:06:33.259Z,0.50
2018-03-31T03:09:00.623Z,0.50
2018-03-31T03:11:28.728Z,0.40
2018-03-31T03:13:56.847Z,0.50
2018-03-31T03:16:24.195Z,0.57
2018-03-31T03:18:51.549Z,0.60
2018-03-31T03:21:18.891Z,0.93
2018-03-31T03:23:46.256Z,0.40
2018-03-31T03:26:13.612Z,0.60
2018-03-31T03:28:40.970Z,0.40
2018-03-31T03:31:08.324Z,0.60
2018-03-31T03:33:35.808Z,0.50
2018-03-31T03:36:03.172Z,0.90
2018-03-31T03:38:30.528Z,0.50
2018-03-31T03:40:57.912Z,0.60
2018-03-31T03:43:25.262Z,0.60
2018-03-31T03:45:53.389Z,0.60
2018-03-31T03:48:20.728Z,0.70
2018-03-31T03:50:48.084Z,0.50
2018-03-31T03:53:15.453Z,0.67
2018-03-31T03:55:42.790Z,0.60
2018-03-31T03:58:10.239Z,0.83
2018-03-31T04:00:37.603Z,0.77
2018-03-31T04:03:05.052Z,0.80
2018-03-31T04:05:32.401Z,0.80
2018-03-31T04:07:59.788Z,0.70
2018-03-31T04:10:27.139Z,0.80
2018-03-31T04:12:54.489Z,0.80
2018-03-31T04:15:21.841Z,0.70
2018-03-31T04:17:49.909Z,1.03
2018-03-31T04:20:17.255Z,0.90
2018-03-31T04:22:44.603Z,0.90
2018-03-31T04:25:12.675Z,1.10
2018-03-31T04:27:40.067Z,0.83
2018-03-31T04:30:07.459Z,0.97
2018-03-31T04:32:34.812Z,1.13
2018-03-31T04:35:02.942Z,1.00
2018-03-31T04:37:30.729Z,1.00
2018-03-31T04:39:58.076Z,1.13
2018-03-31T04:42:25.437Z,1.57
2018-03-31T04:44:52.781Z,1.20
2018-03-31T04:47:20.167Z,1.33
2018-03-31T04:49:47.579Z,1.43
2018-03-31T04:52:14.964Z,1.30
2018-03-31T04:54:42.332Z,1.83
2018-03-31T04:57:10.590Z,1.30
2018-03-31T04:59:37.968Z,1.40
2018-03-31T05:02:05.320Z,1.00
2018-03-31T05:04:32.684Z,1.00
2018-03-31T05:07:00.181Z,1.00
2018-03-31T05:09:27.546Z,1.00
2018-03-31T05:11:54.909Z,1.13
2018-03-31T05:14:22.290Z,2.97
2018-03-31T05:16:49.728Z,1.10
2018-03-31T05:19:17.129Z,1.17
2018-03-31T05:21:46.215Z,1.67
2018-03-31T05:24:13.560Z,1.30
2018-03-31T05:26:40.955Z,1.30
2018-03-31T05:29:08.296Z,1.47
2018-03-31T05:31:35.666Z,1.10
2018-03-31T05:34:03.013Z,1.07
2018-03-31T05:36:30.435Z,1.13
2018-03-31T05:38:57.779Z,1.07
2018-03-31T05:41:25.903Z,1.03
2018-03-31T05:43:53.257Z,1.07
2018-03-31T05:46:20.658Z,1.20
2018-03-31T05:48:48.592Z,1.33
2018-03-31T05:51:15.943Z,1.00
2018-03-31T05:53:43.291Z,0.80
2018-03-31T05:56:10.647Z,0.90
2018-03-31T05:58:38.006Z,0.90
2018-03-31T06:01:06.132Z,0.80
2018-03-31T06:03:34.274Z,0.70
2018-03-31T06:06:01.657Z,0.80
2018-03-31T06:08:29.003Z,0.43
2018-03-31T06:10:56.376Z,0.70
2018-03-31T06:13:23.727Z,1.13
2018-03-31T06:15:51.091Z,0.73
2018-03-31T06:18:18.441Z,0.60
2018-03-31T06:20:45.941Z,0.60
2018-03-31T06:23:14.214Z,2.30
2018-03-31T06:25:41.564Z,0.63
2018-03-31T06:28:08.920Z,0.70
2018-03-31T06:30:36.263Z,0.97
2018-03-31T06:33:03.633Z,0.90
2018-03-31T06:35:31.007Z,0.60
2018-03-31T06:37:58.364Z,0.80
2018-03-31T06:40:25.720Z,0.60
2018-03-31T06:42:53.114Z,1.33
2018-03-31T06:45:20.644Z,0.70
2018-03-31T06:47:47.984Z,1.80
2018-03-31T06:50:15.333Z,0.50
2018-03-31T06:52:42.693Z,0.50
2018-03-31T06:55:10.043Z,0.50
2018-03-31T06:57:37.432Z,0.60
2018-03-31T07:00:04.805Z,1.37
2018-03-31T07:02:32.151Z,0.60
2018-03-31T07:05:00.405Z,0.70
2018-03-31T07:07:28.525Z,0.40
2018-03-31T07:09:55.878Z,0.60
2018-03-31T07:12:23.250Z,0.73
2018-03-31T07:14:50.772Z,1.00
2018-03-31T07:17:18.149Z,0.70
2018-03-31T07:19:45.483Z,0.50
2018-03-31T07:22:12.914Z,0.60
2018-03-31T07:24:40.294Z,0.60
2018-03-31T07:27:07.694Z,26.73
2018-03-31T07:29:35.073Z,7.80
2018-03-31T07:32:02.423Z,2.07
2018-03-31T07:34:30.004Z,4.73
2018-03-31T07:36:57.358Z,3.07
2018-03-31T07:39:25.464Z,1.23
2018-03-31T07:41:52.824Z,0.80
2018-03-31T07:44:20.199Z,2.30
2018-03-31T07:46:47.571Z,2.37
2018-03-31T07:49:14.926Z,3.67
2018-03-31T07:51:42.325Z,2.57
2018-03-31T07:54:09.730Z,0.97
2018-03-31T07:56:37.267Z,10.43
2018-03-31T07:59:04.739Z,2.73
2018-03-31T08:01:32.098Z,2.10
2018-03-31T08:03:59.457Z,0.87
2018-03-31T08:06:27.248Z,0.70
2018-03-31T08:08:55.451Z,1.53
2018-03-31T08:11:23.053Z,1.07
2018-03-31T08:13:50.574Z,1.13
2018-03-31T08:16:17.908Z,1.60
2018-03-31T08:18:46.072Z,1.20
2018-03-31T08:21:13.436Z,1.17
2018-03-31T08:23:40.902Z,2.13
2018-03-31T08:26:08.246Z,1.97
2018-03-31T08:28:35.997Z,1.10
2018-03-31T08:31:04.107Z,1.43
2018-03-31T08:33:31.558Z,1.40
2018-03-31T08:35:58.911Z,1.30
2018-03-31T08:38:26.273Z,2.03
2018-03-31T08:40:53.687Z,1.30
2018-03-31T08:43:21.803Z,2.00
2018-03-31T08:45:49.167Z,1.57
2018-03-31T08:48:16.516Z,1.33
2018-03-31T08:50:43.880Z,1.27
2018-03-31T08:53:11.225Z,1.40
2018-03-31T08:55:38.723Z,1.40
2018-03-31T08:58:06.083Z,1.90
2018-03-31T09:00:33.538Z,1.47
2018-03-31T09:03:01.833Z,1.60
2018-03-31T09:05:29.178Z,1.43
2018-03-31T09:07:59.251Z,2.43
2018-03-31T09:10:26.621Z,1.20
2018-03-31T09:12:54.009Z,1.40
2018-03-31T09:15:21.474Z,1.70
2018-03-31T09:17:48.848Z,1.50
2018-03-31T09:20:16.205Z,1.73
2018-03-31T09:22:45.782Z,1.70
2018-03-31T09:25:10.979Z,1.77
2018-03-31T09:27:38.326Z,1.50
2018-03-31T09:30:05.678Z,1.70
2018-03-31T09:32:33.152Z,1.80
2018-03-31T09:35:08.298Z,1.73
2018-03-31T09:37:35.640Z,1.67
2018-03-31T09:40:03.024Z,2.20
2018-03-31T09:42:30.700Z,2.63
2018-03-31T09:44:58.104Z,2.97
2018-03-31T09:47:25.461Z,1.70
2018-03-31T09:49:52.810Z,2.00
2018-03-31T09:52:20.430Z,3.53
2018-03-31T09:54:47.784Z,1.90
2018-03-31T09:57:15.149Z,2.80
2018-03-31T09:59:42.493Z,2.80
2018-03-31T10:02:09.884Z,2.30
2018-03-31T10:04:37.239Z,1.80
2018-03-31T10:07:04.586Z,1.70
2018-03-31T10:09:31.960Z,1.70
2018-03-31T10:11:59.359Z,2.00
2018-03-31T10:14:26.727Z,1.90
2018-03-31T10:16:54.226Z,2.07
2018-03-31T10:19:21.569Z,2.20
2018-03-31T10:21:48.914Z,2.03
2018-03-31T10:24:16.291Z,2.07
2018-03-31T10:26:43.650Z,2.90
2018-03-31T10:29:11.025Z,1.90
2018-03-31T10:31:38.419Z,2.20
2018-03-31T10:34:05.780Z,1.70
2018-03-31T10:36:33.193Z,1.80
2018-03-31T10:39:01.349Z,1.70
2018-03-31T10:41:28.714Z,1.50
2018-03-31T10:43:56.055Z,2.00
2018-03-31T10:46:23.444Z,2.30
2018-03-31T10:48:50.793Z,2.43
2018-03-31T10:51:18.144Z,2.20
2018-03-31T10:53:45.601Z,3.07
2018-03-31T10:56:12.944Z,5.13
2018-03-31T10:58:40.340Z,3.90
2018-03-31T11:01:07.709Z,2.87
2018-03-31T11:03:35.085Z,3.30
2018-03-31T11:06:02.641Z,2.67
2018-03-31T11:08:30.016Z,3.50
2018-03-31T11:10:57.384Z,4.90
2018-03-31T11:13:24.724Z,3.40
2018-03-31T11:15:52.103Z,3.40
2018-03-31T11:18:19.530Z,4.27
2018-03-31T11:20:47.305Z,3.47
2018-03-31T11:23:14.665Z,4.00
2018-03-31T11:25:42.021Z,5.17
2018-03-31T11:28:09.375Z,3.97
2018-03-31T11:30:37.488Z,6.07
2018-03-31T11:33:05.125Z,5.00
2018-03-31T11:35:32.585Z,4.47
2018-03-31T11:38:00.029Z,2.80
2018-03-31T11:40:28.381Z,3.67
2018-03-31T11:42:55.763Z,3.80
2018-03-31T11:45:23.117Z,3.80
2018-03-31T11:47:50.463Z,3.80
2018-03-31T11:50:17.837Z,3.60
2018-03-31T11:52:45.202Z,3.47
2018-03-31T11:55:12.879Z,4.63
2018-03-31T11:57:40.220Z,4.00
2018-03-31T12:00:07.717Z,3.43
2018-03-31T12:02:35.106Z,3.87
2018-03-31T12:05:02.482Z,4.63
2018-03-31T12:07:29.957Z,3.90
2018-03-31T12:09:57.302Z,3.50
2018-03-31T12:12:24.718Z,4.00
2018-03-31T12:14:52.072Z,4.47
2018-03-31T12:17:19.432Z,4.17
2018-03-31T12:19:46.793Z,3.60
2018-03-31T12:22:14.929Z,4.60
2018-03-31T12:24:42.321Z,3.70
2018-03-31T12:27:09.704Z,3.93
2018-03-31T12:29:37.039Z,3.77
2018-03-31T12:32:04.392Z,2.97
2018-03-31T12:34:31.757Z,3.23
2018-03-31T12:36:59.106Z,4.00
2018-03-31T12:39:26.468Z,3.27
2018-03-31T12:41:53.862Z,4.53
2018-03-31T12:44:21.223Z,3.33
2018-03-31T12:46:48.589Z,3.53
2018-03-31T12:49:15.959Z,4.90
2018-03-31T12:51:43.315Z,6.30
2018-03-31T12:54:11.447Z,3.23
2018-03-31T12:56:38.816Z,3.73
2018-03-31T12:59:06.174Z,3.93
2018-03-31T13:01:33.545Z,4.07
2018-03-31T13:04:01.660Z,3.57
2018-03-31T13:06:29.017Z,4.50
2018-03-31T13:08:56.360Z,4.10
2018-03-31T13:11:23.734Z,3.30
2018-03-31T13:13:51.099Z,4.23
2018-03-31T13:16:18.453Z,3.30
2018-03-31T13:18:45.890Z,4.17
2018-03-31T13:21:13.246Z,6.50
2018-03-31T13:23:40.960Z,3.80
2018-03-31T13:26:08.313Z,3.40
2018-03-31T13:28:35.689Z,3.10
2018-03-31T13:31:03.058Z,4.40
2018-03-31T13:33:30.412Z,3.13
2018-03-31T13:35:57.855Z,3.73
2018-03-31T13:38:25.223Z,3.87
2018-03-31T13:40:52.576Z,3.90
2018-03-31T13:43:19.954Z,3.40
2018-03-31T13:45:47.335Z,3.93
2018-03-31T13:48:14.712Z,3.63
2018-03-31T13:50:42.072Z,5.57
2018-03-31T13:53:09.452Z,3.57
2018-03-31T13:55:36.794Z,4.23
2018-03-31T13:58:04.932Z,3.67
2018-03-31T14:00:32.308Z,4.53
2018-03-31T14:02:59.968Z,3.50
2018-03-31T14:05:27.314Z,3.60
2018-03-31T14:07:54.697Z,3.43
2018-03-31T14:10:22.052Z,3.33
2018-03-31T14:12:49.419Z,3.33
2018-03-31T14:15:16.786Z,6.13
2018-03-31T14:17:44.131Z,4.63
2018-03-31T14:20:11.531Z,4.03
2018-03-31T14:22:38.889Z,3.30
2018-03-31T14:25:06.265Z,3.80
2018-03-31T14:27:34.457Z,3.60
2018-03-31T14:30:01.837Z,3.63
2018-03-31T14:32:29.200Z,3.07
2018-03-31T14:34:56.562Z,4.87
2018-03-31T14:37:23.933Z,5.83
2018-03-31T14:39:51.292Z,3.50
2018-03-31T14:42:18.757Z,3.50
2018-03-31T14:44:46.116Z,3.63
2018-03-31T14:47:13.489Z,3.70
2018-03-31T14:49:40.917Z,3.53
2018-03-31T14:52:08.294Z,4.20
2018-03-31T14:54:36.424Z,3.87
2018-03-31T14:57:03.771Z,3.57
2018-03-31T14:59:31.138Z,3.57
2018-03-31T15:01:59.383Z,3.70
2018-03-31T15:04:26.763Z,3.40
2018-03-31T15:06:54.145Z,4.40
2018-03-31T15:09:22.347Z,3.90
2018-03-31T15:11:49.746Z,2.90
2018-03-31T15:14:17.116Z,4.00
2018-03-31T15:16:44.470Z,3.50
2018-03-31T15:19:11.816Z,3.27
2018-03-31T15:21:39.598Z,4.60
2018-03-31T15:24:06.963Z,4.17
2018-03-31T15:26:34.316Z,3.00
2018-03-31T15:29:02.427Z,2.83
2018-03-31T15:31:29.810Z,3.30
2018-03-31T15:33:57.169Z,2.90
2018-03-31T15:36:24.785Z,4.90
2018-03-31T15:38:52.184Z,3.20
2018-03-31T15:41:19.563Z,3.77
2018-03-31T15:43:47.314Z,4.73
2018-03-31T15:46:14.661Z,4.67
2018-03-31T15:48:42.084Z,5.80
2018-03-31T15:51:09.375Z,4.07
2018-03-31T15:53:36.807Z,5.00
2018-03-31T15:56:04.165Z,4.17
2018-03-31T15:58:31.536Z,3.50
2018-03-31T16:00:58.893Z,4.47
2018-03-31T16:03:26.255Z,3.80
2018-03-31T16:05:53.610Z,4.80
2018-03-31T16:08:21.017Z,4.97
2018-03-31T16:10:48.395Z,4.57
2018-03-31T16:13:15.759Z,4.03
2018-03-31T16:15:43.255Z,4.43
2018-03-31T16:18:10.609Z,4.00
2018-03-31T16:20:37.976Z,4.20
2018-03-31T16:23:06.093Z,4.93
2018-03-31T16:25:33.432Z,4.97
2018-03-31T16:28:00.787Z,3.33
2018-03-31T16:30:28.145Z,3.43
2018-03-31T16:32:55.506Z,3.37
2018-03-31T16:35:22.851Z,4.20
2018-03-31T16:37:50.220Z,3.73
2018-03-31T16:40:17.570Z,2.50
2018-03-31T16:42:44.914Z,2.73
2018-03-31T16:45:12.374Z,3.20
2018-03-31T16:47:39.712Z,2.40
2018-03-31T16:50:07.098Z,2.47
2018-03-31T16:52:34.448Z,2.30
2018-03-31T16:55:01.826Z,2.70
2018-03-31T16:57:29.174Z,2.50
2018-03-31T16:59:56.524Z,2.60
2018-03-31T17:02:23.888Z,2.70
2018-03-31T17:04:51.255Z,2.70
2018-03-31T17:07:18.623Z,3.90
2018-03-31T17:09:46.135Z,2.87
2018-03-31T17:12:13.492Z,3.77
2018-03-31T17:14:40.854Z,3.67
2018-03-31T17:17:08.222Z,5.57
2018-03-31T17:19:35.574Z,2.97
2018-03-31T17:22:02.927Z,3.30
2018-03-31T17:24:30.291Z,3.20
2018-03-31T17:26:57.656Z,3.33
2018-03-31T17:29:25.009Z,4.03
2018-03-31T17:31:52.444Z,4.80
2018-03-31T17:34:19.807Z,3.90
2018-03-31T17:36:47.177Z,4.80
2018-03-31T17:39:14.516Z,4.17
2018-03-31T17:41:41.879Z,4.27
2018-03-31T17:44:09.258Z,5.03
2018-03-31T17:46:36.630Z,3.47
2018-03-31T17:49:04.020Z,3.93
2018-03-31T17:51:31.352Z,3.80
2018-03-31T17:53:58.688Z,4.40
2018-03-31T17:56:26.059Z,4.50
2018-03-31T17:58:53.521Z,4.60
2018-03-31T18:01:20.904Z,4.30
2018-03-31T18:03:48.262Z,4.63
2018-03-31T18:06:15.658Z,5.03
2018-03-31T18:08:42.994Z,4.07
2018-03-31T18:11:10.687Z,4.13
2018-03-31T18:13:38.096Z,4.93
2018-03-31T18:16:05.442Z,5.07
2018-03-31T18:18:32.800Z,6.80
2018-03-31T18:21:00.221Z,7.17
2018-03-31T18:23:27.594Z,5.17
2018-03-31T18:25:54.955Z,5.13
2018-03-31T18:28:22.312Z,4.40
2018-03-31T18:30:49.674Z,7.00
2018-03-31T18:33:17.049Z,5.70
2018-03-31T18:35:44.521Z,5.23
2018-03-31T18:38:11.855Z,5.13
2018-03-31T18:40:39.209Z,5.90
2018-03-31T18:43:06.730Z,5.40
2018-03-31T18:45:34.324Z,5.40
2018-03-31T18:48:01.632Z,7.33
2018-03-31T18:50:29.248Z,6.00
2018-03-31T18:52:56.650Z,5.90
2018-03-31T18:55:24.002Z,6.23
2018-03-31T18:57:51.385Z,8.17
2018-03-31T19:00:18.739Z,7.97
2018-03-31T19:02:46.126Z,8.03
2018-03-31T19:05:13.471Z,8.43
2018-03-31T19:07:40.826Z,7.30
2018-03-31T19:10:08.245Z,9.00
2018-03-31T19:12:35.618Z,5.93
2018-03-31T19:15:02.990Z,5.93
2018-03-31T19:17:30.349Z,6.80
2018-03-31T19:19:57.706Z,5.00
2018-03-31T19:22:25.045Z,5.40
2018-03-31T19:24:57.804Z,5.30
2018-03-31T19:27:25.172Z,5.93
2018-03-31T19:29:52.534Z,5.30
2018-03-31T19:32:19.882Z,5.73
2018-03-31T19:34:47.236Z,7.37
2018-03-31T19:37:14.601Z,6.70
2018-03-31T19:39:47.824Z,5.97
2018-03-31T19:42:15.181Z,6.50
2018-03-31T19:44:43.285Z,6.23
2018-03-31T19:47:10.648Z,7.73
2018-03-31T19:49:38.019Z,6.10
2018-03-31T19:52:05.393Z,7.47
2018-03-31T19:54:32.754Z,8.77
2018-03-31T19:57:00.179Z,10.87
2018-03-31T19:59:27.527Z,9.60
2018-03-31T20:01:54.880Z,10.67
2018-03-31T20:04:22.247Z,12.73
2018-03-31T20:06:49.587Z,12.47
2018-03-31T20:09:16.953Z,15.83
2018-03-31T20:11:44.315Z,14.03
2018-03-31T20:14:11.671Z,13.23
2018-03-31T20:16:39.028Z,16.07
2018-03-31T20:19:06.799Z,13.73
2018-03-31T20:21:34.155Z,16.10
2018-03-31T20:24:01.509Z,15.10
2018-03-31T20:26:29.554Z,17.00
2018-03-31T20:28:56.931Z,16.97
2018-03-31T20:31:24.297Z,17.60
2018-03-31T20:33:51.653Z,17.40
2018-03-31T20:36:19.019Z,20.37
2018-03-31T20:38:46.373Z,22.63
2018-03-31T20:41:13.725Z,20.40
2018-03-31T20:43:41.188Z,21.93
2018-03-31T20:46:08.544Z,22.63
2018-03-31T20:48:35.918Z,23.53
2018-03-31T20:51:03.258Z,24.40
2018-03-31T20:53:30.620Z,25.57
2018-03-31T20:55:58.728Z,23.63
2018-03-31T20:58:26.094Z,21.80
2018-03-31T21:00:53.438Z,21.87
2018-03-31T21:03:20.830Z,24.50
2018-03-31T21:05:48.238Z,26.17
2018-03-31T21:08:15.593Z,21.50
2018-03-31T21:10:43.176Z,19.23
2018-03-31T21:13:10.534Z,17.80
2018-03-31T21:15:37.907Z,19.03
2018-03-31T21:18:05.262Z,20.13
2018-03-31T21:20:32.624Z,18.70
2018-03-31T21:22:59.974Z,16.50
2018-03-31T21:25:27.325Z,17.47
2018-03-31T21:27:54.685Z,19.67
2018-03-31T21:30:22.031Z,19.67
2018-03-31T21:32:49.877Z,20.00
2018-03-31T21:35:17.236Z,16.80
2018-03-31T21:37:44.573Z,17.07
2018-03-31T21:40:12.543Z,15.93
2018-03-31T21:42:39.905Z,15.70
2018-03-31T21:45:07.251Z,15.67
2018-03-31T21:47:34.744Z,12.10
2018-03-31T21:50:02.385Z,14.83
2018-03-31T21:52:29.726Z,11.63
2018-03-31T21:54:57.076Z,12.00
2018-03-31T21:57:24.409Z,11.93
2018-03-31T21:59:51.764Z,10.73
2018-03-31T22:02:19.094Z,10.23
2018-03-31T22:04:46.462Z,13.57
2018-03-31T22:07:14.636Z,9.97
2018-03-31T22:09:41.943Z,12.03
2018-03-31T22:12:09.298Z,9.17
2018-03-31T22:14:42.189Z,9.73
2018-03-31T22:17:09.536Z,9.47
2018-03-31T22:19:36.892Z,9.57
2018-03-31T22:22:04.263Z,8.73
2018-03-31T22:24:32.264Z,8.10
2018-03-31T22:27:00.390Z,8.60
2018-03-31T22:29:27.735Z,9.70
2018-03-31T22:31:55.082Z,6.70
2018-03-31T22:34:22.441Z,6.93
2018-03-31T22:36:49.773Z,6.03
2018-03-31T22:39:17.156Z,6.87
2018-03-31T22:41:44.510Z,6.80
2018-03-31T22:44:11.897Z,6.27
2018-03-31T22:46:39.242Z,7.13
2018-03-31T22:49:06.669Z,7.27
2018-03-31T22:51:34.017Z,7.43
2018-03-31T22:54:01.885Z,6.53
2018-03-31T22:56:29.245Z,6.87
2018-03-31T22:58:56.591Z,5.93
2018-03-31T23:01:24.131Z,6.90
2018-03-31T23:03:51.419Z,6.40
2018-03-31T23:06:18.769Z,6.10
2018-03-31T23:08:46.132Z,6.40
2018-03-31T23:11:13.511Z,6.43
2018-03-31T23:13:40.853Z,6.73
2018-03-31T23:16:08.216Z,7.43
2018-03-31T23:18:35.593Z,7.10
2018-03-31T23:21:02.953Z,6.60
2018-03-31T23:23:31.139Z,5.83
2018-03-31T23:25:58.607Z,5.93
2018-03-31T23:28:25.961Z,6.47
2018-03-31T23:30:53.579Z,7.43
2018-03-31T23:33:20.936Z,5.73
2018-03-31T23:35:48.294Z,5.67
2018-03-31T23:38:15.638Z,7.57
2018-03-31T23:40:42.988Z,6.07
2018-03-31T23:43:10.330Z,6.73
2018-03-31T23:45:37.793Z,7.53
2018-03-31T23:48:05.154Z,7.33
2018-03-31T23:50:32.510Z,6.37
2018-03-31T23:52:59.858Z,5.50
2018-03-31T23:55:27.210Z,4.80
2018-03-31T23:57:54.572Z,6.07
